Time;durP1;ratioP1;P1;durP2;ratioP2;P2;SDS_P1;SDS_P2;PMS_P1;PMS_P2;Temp;Humidity;BMP_temperature;BMP_pressure;BME280_temperature;BME280_humidity;BME280_pressure;Samples;Min_cycle;Max_cycle;Signal;HPM_P1;HPM_P2
2023/09/24 00:01:25;;;;;;;17.70;16.08;;;;;;;;;;5010749;28;20116;-59
2023/09/24 00:03:50;;;;;;;13.23;12.07;;;;;;;;;;5011500;28;20025;-59
2023/09/24 00:06:16;;;;;;;13.77;12.50;;;;;;;;;;5010373;28;20026;-58
2023/09/24 00:08:41;;;;;;;16.50;15.00;;;;;;;;;;5009587;28;20037;-59
2023/09/24 00:11:07;;;;;;;15.48;14.15;;;;;;;;;;5010921;28;20463;-59
2023/09/24 00:13:34;;;;;;;13.20;11.77;;;;;;;;;;5011557;28;20014;-58
2023/09/24 00:16:04;;;;;;;23.25;21.52;;;;;;;;;;5011604;28;20112;-59
2023/09/24 00:18:31;;;;;;;19.77;18.13;;;;;;;;;;5004729;28;20065;-59
2023/09/24 00:20:56;;;;;;;20.00;18.35;;;;;;;;;;5011083;28;20017;-59
2023/09/24 00:23:21;;;;;;;14.38;13.07;;;;;;;;;;5009870;28;20403;-59
2023/09/24 00:25:49;;;;;;;17.80;16.25;;;;;;;;;;5010841;28;20026;-59
2023/09/24 00:28:14;;;;;;;20.42;18.73;;;;;;;;;;5010872;28;20029;-59
2023/09/24 00:30:42;;;;;;;14.07;12.68;;;;;;;;;;5010687;28;20034;-59
2023/09/24 00:33:07;;;;;;;72.47;67.47;;;;;;;;;;5009853;28;20057;-59
2023/09/24 00:35:33;;;;;;;44.60;41.55;;;;;;;;;;5011053;28;20018;-60
2023/09/24 00:37:58;;;;;;;13.35;12.05;;;;;;;;;;5009234;28;20030;-60
2023/09/24 00:40:23;;;;;;;18.90;17.37;;;;;;;;;;5010258;28;20109;-57
2023/09/24 00:42:49;;;;;;;33.03;30.77;;;;;;;;;;5010250;28;20080;-58
2023/09/24 00:45:14;;;;;;;21.17;19.50;;;;;;;;;;5003097;28;20014;-58
2023/09/24 00:47:42;;;;;;;45.97;42.63;;;;;;;;;;5007660;28;20028;-59
2023/09/24 00:50:08;;;;;;;16.17;14.80;;;;;;;;;;5009090;28;20025;-60
2023/09/24 00:52:34;;;;;;;33.25;30.90;;;;;;;;;;5010026;28;20056;-59
2023/09/24 00:54:59;;;;;;;18.38;17.00;;;;;;;;;;5009142;28;20033;-59
2023/09/24 00:57:26;;;;;;;21.30;19.52;;;;;;;;;;5010291;28;20022;-59
2023/09/24 00:59:51;;;;;;;;;;;;;;;;;;5010449;28;20129;-59
2023/09/24 01:02:17;;;;;;;39.15;36.60;;;;;;;;;;5009972;28;19953;-59
2023/09/24 01:04:43;;;;;;;15.27;13.95;;;;;;;;;;5009826;28;20032;-59
2023/09/24 01:07:08;;;;;;;14.75;13.50;;;;;;;;;;5004413;28;20032;-59
2023/09/24 01:09:33;;;;;;;17.07;15.67;;;;;;;;;;5009514;28;20087;-59
2023/09/24 01:12:03;;;;;;;17.85;16.40;;;;;;;;;;5008966;28;20025;-59
2023/09/24 01:14:28;;;;;;;21.65;19.95;;;;;;;;;;5009327;28;20026;-59
2023/09/24 01:16:54;;;;;;;22.70;20.77;;;;;;;;;;5008893;28;20029;-58
2023/09/24 01:19:21;;;;;;;23.90;21.88;;;;;;;;;;5010223;28;20068;-59
2023/09/24 01:21:47;;;;;;;18.08;16.63;;;;;;;;;;5010783;28;20034;-60
2023/09/24 01:24:12;;;;;;;21.25;19.50;;;;;;;;;;5010620;28;20365;-60
2023/09/24 01:26:38;;;;;;;31.03;28.80;;;;;;;;;;5009916;28;20470;-58
2023/09/24 01:29:05;;;;;;;32.60;30.35;;;;;;;;;;5010870;28;20029;-59
2023/09/24 01:31:30;;;;;;;19.08;17.48;;;;;;;;;;4997891;28;20506;-58
2023/09/24 01:33:56;;;;;;;15.55;14.32;;;;;;;;;;5007811;28;20076;-59
2023/09/24 01:36:21;;;;;;;23.67;21.97;;;;;;;;;;5006320;28;20024;-59
2023/09/24 01:38:47;;;;;;;23.23;21.45;;;;;;;;;;5002967;28;20022;-58
2023/09/24 01:41:12;;;;;;;22.38;20.70;;;;;;;;;;5008409;28;20466;-59
2023/09/24 01:43:39;;;;;;;46.78;43.67;;;;;;;;;;5010211;28;20033;-59
2023/09/24 01:46:07;;;;;;;19.15;17.60;;;;;;;;;;5010183;28;20044;-59
2023/09/24 01:48:35;;;;;;;12.90;11.75;;;;;;;;;;5010494;28;20018;-59
2023/09/24 01:51:07;;;;;;;15.05;13.85;;;;;;;;;;5009723;28;20133;-59
2023/09/24 01:53:33;;;;;;;17.00;15.65;;;;;;;;;;5010073;28;20018;-59
2023/09/24 01:55:58;;;;;;;18.67;17.20;;;;;;;;;;5009728;28;20549;-59
2023/09/24 01:58:23;;;;;;;20.27;18.70;;;;;;;;;;5010484;28;20018;-58
2023/09/24 02:00:48;;;;;;;62.72;58.97;;;;;;;;;;5008203;28;20759;-59
2023/09/24 02:03:13;;;;;;;21.43;19.80;;;;;;;;;;5010769;28;20030;-59
2023/09/24 02:05:42;;;;;;;20.73;19.07;;;;;;;;;;5014218;28;20064;-59
2023/09/24 02:08:09;;;;;;;25.42;23.55;;;;;;;;;;5013336;28;20519;-58
2023/09/24 02:10:35;;;;;;;18.48;17.02;;;;;;;;;;5012864;28;20085;-58
2023/09/24 02:13:00;;;;;;;40.72;38.17;;;;;;;;;;5013919;28;20022;-58
2023/09/24 02:15:25;;;;;;;17.75;16.40;;;;;;;;;;5012409;28;20038;-58
2023/09/24 02:17:51;;;;;;;23.98;22.27;;;;;;;;;;5013064;28;20053;-59
2023/09/24 02:20:24;;;;;;;16.87;15.60;;;;;;;;;;5011665;28;20030;-59
2023/09/24 02:22:50;;;;;;;16.92;13.05;;;;;;;;;;5012493;28;20076;-58
2023/09/24 02:25:16;;;;;;;27.95;25.77;;;;;;;;;;5013050;28;20033;-59
2023/09/24 02:27:42;;;;;;;15.07;13.82;;;;;;;;;;5013055;28;20061;-58
2023/09/24 02:30:08;;;;;;;14.97;13.83;;;;;;;;;;5010465;28;20010;-59
2023/09/24 02:32:33;;;;;;;17.52;16.20;;;;;;;;;;5012593;28;20824;-59
2023/09/24 02:34:58;;;;;;;17.13;15.88;;;;;;;;;;5009388;28;20025;-58
2023/09/24 02:37:27;;;;;;;14.70;13.60;;;;;;;;;;5005030;28;20033;-59
2023/09/24 02:39:53;;;;;;;18.83;17.40;;;;;;;;;;5013429;28;20092;-59
2023/09/24 02:42:18;;;;;;;13.10;12.03;;;;;;;;;;5013862;28;20053;-59
2023/09/24 02:44:43;;;;;;;13.82;12.75;;;;;;;;;;5012209;28;20026;-59
2023/09/24 02:47:08;;;;;;;13.00;11.90;;;;;;;;;;5013066;28;20381;-58
2023/09/24 02:49:33;;;;;;;43.35;40.50;;;;;;;;;;5012983;28;20014;-59
2023/09/24 02:51:58;;;;;;;11.55;10.52;;;;;;;;;;5012092;28;20029;-59
2023/09/24 02:54:24;;;;;;;16.33;15.02;;;;;;;;;;5013333;28;20105;-59
2023/09/24 02:56:50;;;;;;;19.25;17.88;;;;;;;;;;5013619;28;20030;-59
2023/09/24 02:59:15;;;;;;;14.40;13.15;;;;;;;;;;5012096;28;20030;-58
2023/09/24 03:01:46;;;;;;;47.63;44.67;;;;;;;;;;5012057;28;20032;-59
2023/09/24 03:04:11;;;;;;;14.60;13.35;;;;;;;;;;5019074;28;20014;-59
2023/09/24 03:06:38;;;;;;;13.63;12.53;;;;;;;;;;5015312;28;20084;-59
2023/09/24 03:09:04;;;;;;;12.45;11.45;;;;;;;;;;5012880;28;20068;-58
2023/09/24 03:11:29;;;;;;;18.30;17.05;;;;;;;;;;5013792;28;20041;-59
2023/09/24 03:13:54;;;;;;;14.60;13.40;;;;;;;;;;5012923;28;20571;-59
2023/09/24 03:16:19;;;;;;;12.80;11.57;;;;;;;;;;5011871;28;20025;-59
2023/09/24 03:18:46;;;;;;;13.70;12.73;;;;;;;;;;5014234;28;20030;-60
2023/09/24 03:21:12;;;;;;;8.60;7.80;;;;;;;;;;5012390;28;20026;-59
2023/09/24 03:23:37;;;;;;;9.05;7.80;;;;;;;;;;5012270;28;20493;-58
2023/09/24 03:26:03;;;;;;;10.27;9.43;;;;;;;;;;5012801;28;20030;-59
2023/09/24 03:28:28;;;;;;;10.00;7.95;;;;;;;;;;5013025;28;20170;-59
2023/09/24 03:30:54;;;;;;;17.03;15.80;;;;;;;;;;5011113;28;20032;-59
2023/09/24 03:33:19;;;;;;;23.65;22.05;;;;;;;;;;5012878;28;20428;-59
2023/09/24 03:35:45;;;;;;;46.30;43.50;;;;;;;;;;5012279;28;20102;-60
2023/09/24 03:38:11;;;;;;;12.60;11.57;;;;;;;;;;5011120;28;20064;-59
2023/09/24 03:40:36;;;;;;;13.10;12.10;;;;;;;;;;5011687;28;20058;-59
2023/09/24 03:43:01;;;;;;;12.30;11.00;;;;;;;;;;5007965;28;20041;-60
2023/09/24 03:45:26;;;;;;;12.67;11.57;;;;;;;;;;5011297;28;20466;-60
2023/09/24 03:47:52;;;;;;;11.10;10.17;;;;;;;;;;5011944;28;20037;-59
2023/09/24 03:50:17;;;;;;;29.20;27.15;;;;;;;;;;5012227;28;20104;-59
2023/09/24 03:52:43;;;;;;;9.48;8.68;;;;;;;;;;5010803;28;20105;-59
2023/09/24 03:55:09;;;;;;;28.70;26.77;;;;;;;;;;5011398;28;20029;-60
2023/09/24 03:57:34;;;;;;;17.80;16.45;;;;;;;;;;5011853;28;20026;-58
2023/09/24 03:59:59;;;;;;;10.10;9.05;;;;;;;;;;5010644;28;20018;-59
2023/09/24 04:02:28;;;;;;;8.57;7.78;;;;;;;;;;5011647;28;20025;-59
2023/09/24 04:04:53;;;;;;;8.15;7.38;;;;;;;;;;5012339;28;20117;-59
2023/09/24 04:07:19;;;;;;;22.10;20.43;;;;;;;;;;5011506;28;20168;-59
2023/09/24 04:09:44;;;;;;;31.88;29.70;;;;;;;;;;5011536;28;20060;-59
2023/09/24 04:12:09;;;;;;;10.93;10.03;;;;;;;;;;5011386;28;20026;-59
2023/09/24 04:14:35;;;;;;;12.18;11.18;;;;;;;;;;5010816;28;20572;-59
2023/09/24 04:17:02;;;;;;;11.88;10.85;;;;;;;;;;5011553;28;20033;-59
2023/09/24 04:19:27;;;;;;;11.35;10.35;;;;;;;;;;5003758;28;20029;-59
2023/09/24 04:21:53;;;;;;;36.05;33.70;;;;;;;;;;5010253;28;20022;-59
2023/09/24 04:24:18;;;;;;;11.57;10.57;;;;;;;;;;5006733;28;20465;-59
2023/09/24 04:26:45;;;;;;;18.45;17.13;;;;;;;;;;5010187;28;20421;-59
2023/09/24 04:29:11;;;;;;;;;;;;;;;;;;5010910;28;20080;-59
2023/09/24 04:31:36;;;;;;;17.00;15.65;;;;;;;;;;5011358;28;19913;-59
2023/09/24 04:34:01;;;;;;;12.63;11.38;;;;;;;;;;5007574;28;20022;-59
2023/09/24 04:36:26;;;;;;;10.77;9.85;;;;;;;;;;5011860;28;20513;-58
2023/09/24 04:38:53;;;;;;;10.70;9.77;;;;;;;;;;5011041;28;20057;-59
2023/09/24 04:41:20;;;;;;;10.13;9.32;;;;;;;;;;5007088;28;20051;-59
2023/09/24 04:43:46;;;;;;;9.57;8.13;;;;;;;;;;5011073;28;20466;-59
2023/09/24 04:46:11;;;;;;;22.00;20.25;;;;;;;;;;5011060;28;20036;-58
2023/09/24 04:48:36;;;;;;;10.40;9.60;;;;;;;;;;5007447;28;20044;-59
2023/09/24 04:51:02;;;;;;;9.77;8.67;;;;;;;;;;5005488;28;20419;-59
2023/09/24 04:53:27;;;;;;;8.82;8.02;;;;;;;;;;5011092;28;20017;-59
2023/09/24 04:55:52;;;;;;;33.58;31.42;;;;;;;;;;5009299;28;20033;-57
2023/09/24 04:58:17;;;;;;;11.70;10.80;;;;;;;;;;5011335;28;20430;-58
2023/09/24 05:00:42;;;;;;;10.57;9.68;;;;;;;;;;5010672;28;20099;-58
2023/09/24 05:03:08;;;;;;;18.67;17.20;;;;;;;;;;5011675;28;20010;-58
2023/09/24 05:05:33;;;;;;;8.43;7.63;;;;;;;;;;5010631;28;20036;-58
2023/09/24 05:07:58;;;;;;;9.43;8.52;;;;;;;;;;5007935;28;20565;-59
2023/09/24 05:10:23;;;;;;;11.47;10.47;;;;;;;;;;5009457;28;20029;-59
2023/09/24 05:12:48;;;;;;;17.83;16.47;;;;;;;;;;5008054;28;20037;-60
2023/09/24 05:15:14;;;;;;;20.73;19.27;;;;;;;;;;5005078;28;20036;-60
2023/09/24 05:17:39;;;;;;;9.23;7.97;;;;;;;;;;5004560;28;20072;-59
2023/09/24 05:20:05;;;;;;;10.77;9.80;;;;;;;;;;5008457;28;20527;-58
2023/09/24 05:22:30;;;;;;;18.10;16.73;;;;;;;;;;5010091;28;20057;-57
2023/09/24 05:24:55;;;;;;;9.13;8.33;;;;;;;;;;5010760;28;20056;-57
2023/09/24 05:27:21;;;;;;;26.98;25.08;;;;;;;;;;5007929;28;20061;-58
2023/09/24 05:29:46;;;;;;;9.77;8.87;;;;;;;;;;5010896;28;20021;-58
2023/09/24 05:32:12;;;;;;;9.07;8.27;;;;;;;;;;5005348;28;20801;-59
2023/09/24 05:34:37;;;;;;;11.10;10.13;;;;;;;;;;5011295;28;20026;-60
2023/09/24 05:37:02;;;;;;;11.60;10.55;;;;;;;;;;5006318;28;20813;-58
2023/09/24 05:39:27;;;;;;;9.90;8.98;;;;;;;;;;5011920;28;20146;-58
2023/09/24 05:41:53;;;;;;;10.48;9.63;;;;;;;;;;5014962;28;20492;-58
2023/09/24 05:44:20;;;;;;;14.30;13.20;;;;;;;;;;5011148;28;20018;-59
2023/09/24 05:46:45;;;;;;;18.88;17.50;;;;;;;;;;5012318;28;20481;-58
2023/09/24 05:49:10;;;;;;;16.70;15.37;;;;;;;;;;5013019;28;20022;-59
2023/09/24 05:51:36;;;;;;;25.20;23.57;;;;;;;;;;5010337;28;20071;-58
2023/09/24 05:54:01;;;;;;;14.30;13.13;;;;;;;;;;5014527;28;20477;-58
2023/09/24 05:56:26;;;;;;;9.87;8.97;;;;;;;;;;5010623;28;20053;-58
2023/09/24 05:58:51;;;;;;;8.27;7.57;;;;;;;;;;5012857;28;20028;-60
2023/09/24 06:01:17;;;;;;;11.02;10.10;;;;;;;;;;5008685;28;20077;-59
2023/09/24 06:03:42;;;;;;;11.57;10.67;;;;;;;;;;5007512;28;20030;-60
2023/09/24 06:06:10;;;;;;;18.13;16.77;;;;;;;;;;5005452;28;20492;-59
2023/09/24 06:08:37;;;;;;;9.27;8.38;;;;;;;;;;5010802;28;20036;-58
2023/09/24 06:11:02;;;;;;;;;;;;;;;;;;5014703;28;20030;-58
2023/09/24 06:13:27;;;;;;;21.67;20.17;;;;;;;;;;5013498;28;19913;-59
2023/09/24 06:15:58;;;;;;;13.40;12.35;;;;;;;;;;5013745;28;20022;-59
2023/09/24 06:18:23;;;;;;;9.52;8.73;;;;;;;;;;5013469;28;20033;-59
2023/09/24 06:20:48;;;;;;;37.50;34.90;;;;;;;;;;5012663;28;20022;-59
2023/09/24 06:23:13;;;;;;;17.08;15.88;;;;;;;;;;5007248;28;20026;-59
2023/09/24 06:25:38;;;;;;;18.90;17.55;;;;;;;;;;5010849;28;20080;-58
2023/09/24 06:28:04;;;;;;;15.33;14.23;;;;;;;;;;5007308;28;20121;-58
2023/09/24 06:30:30;;;;;;;36.90;34.47;;;;;;;;;;5007334;28;20026;-58
2023/09/24 06:32:55;;;;;;;12.70;11.55;;;;;;;;;;5002519;28;20466;-59
2023/09/24 06:35:20;;;;;;;9.57;8.77;;;;;;;;;;5008775;28;20044;-59
2023/09/24 06:37:45;;;;;;;40.15;37.45;;;;;;;;;;5009757;28;20027;-59
2023/09/24 06:40:11;;;;;;;9.00;8.17;;;;;;;;;;4998642;28;20036;-59
2023/09/24 06:42:37;;;;;;;13.82;12.73;;;;;;;;;;5009079;28;20029;-60
2023/09/24 06:45:03;;;;;;;10.75;9.75;;;;;;;;;;5013199;28;20025;-59
2023/09/24 06:47:28;;;;;;;13.32;12.30;;;;;;;;;;5010541;28;20022;-58
2023/09/24 06:49:53;;;;;;;25.15;23.30;;;;;;;;;;5011195;28;20378;-59
2023/09/24 06:52:18;;;;;;;29.40;27.43;;;;;;;;;;5013367;28;20032;-59
2023/09/24 06:54:44;;;;;;;19.77;18.50;;;;;;;;;;5010437;28;20037;-58
2023/09/24 06:57:09;;;;;;;23.70;22.00;;;;;;;;;;5008183;28;20477;-59
2023/09/24 06:59:34;;;;;;;41.90;39.13;;;;;;;;;;5011326;28;20093;-58
2023/09/24 07:01:59;;;;;;;15.80;14.80;;;;;;;;;;5012606;28;20033;-59
2023/09/24 07:04:24;;;;;;;27.17;25.43;;;;;;;;;;5013807;28;20018;-59
2023/09/24 07:06:53;;;;;;;24.40;22.77;;;;;;;;;;5013861;28;20021;-59
2023/09/24 07:09:18;;;;;;;62.45;58.40;;;;;;;;;;5012134;28;20109;-59
2023/09/24 07:11:43;;;;;;;35.73;33.50;;;;;;;;;;5006614;28;20101;-58
2023/09/24 07:14:08;;;;;;;37.77;35.10;;;;;;;;;;5009566;28;20045;-58
2023/09/24 07:16:34;;;;;;;23.92;22.45;;;;;;;;;;5011213;28;20021;-59
2023/09/24 07:19:00;;;;;;;20.95;19.60;;;;;;;;;;5008632;28;20478;-58
2023/09/24 07:21:28;;;;;;;28.08;26.10;;;;;;;;;;5021398;28;20025;-59
2023/09/24 07:23:54;;;;;;;16.55;15.32;;;;;;;;;;5029051;28;20060;-59
2023/09/24 07:26:19;;;;;;;21.30;19.80;;;;;;;;;;5019619;28;20527;-60
2023/09/24 07:28:45;;;;;;;26.55;24.77;;;;;;;;;;5008699;28;20033;-60
2023/09/24 07:31:13;;;;;;;13.13;12.10;;;;;;;;;;5010862;28;20404;-60
2023/09/24 07:33:39;;;;;;;63.67;59.55;;;;;;;;;;4995904;28;20030;-60
2023/09/24 07:36:04;;;;;;;19.50;18.05;;;;;;;;;;5001610;28;20025;-60
2023/09/24 07:38:30;;;;;;;13.05;12.00;;;;;;;;;;5010710;28;20014;-60
2023/09/24 07:40:55;;;;;;;31.00;29.13;;;;;;;;;;5016534;28;20025;-59
2023/09/24 07:43:20;;;;;;;17.47;16.20;;;;;;;;;;5027292;28;20056;-59
2023/09/24 07:45:46;;;;;;;21.70;20.23;;;;;;;;;;5017128;28;20034;-60
2023/09/24 07:48:13;;;;;;;11.13;10.27;;;;;;;;;;5012736;28;20041;-60
2023/09/24 07:50:38;;;;;;;50.50;47.15;;;;;;;;;;5012179;28;20395;-60
2023/09/24 07:53:05;;;;;;;48.63;45.42;;;;;;;;;;5024278;28;20014;-60
2023/09/24 07:55:31;;;;;;;24.15;22.38;;;;;;;;;;5032528;28;20068;-60
2023/09/24 07:57:56;;;;;;;63.97;60.15;;;;;;;;;;5021695;28;20022;-60
2023/09/24 08:00:21;;;;;;;68.87;64.50;;;;;;;;;;5026504;28;20049;-61
2023/09/24 08:02:47;;;;;;;70.95;66.75;;;;;;;;;;5032455;28;20420;-60
2023/09/24 08:05:12;;;;;;;20.27;18.83;;;;;;;;;;5028600;28;20060;-59
2023/09/24 08:07:37;;;;;;;48.30;44.70;;;;;;;;;;5023925;28;20021;-58
2023/09/24 08:10:02;;;;;;;17.83;16.50;;;;;;;;;;5031681;28;20068;-60
2023/09/24 08:12:27;;;;;;;54.63;51.23;;;;;;;;;;5032454;28;20037;-60
2023/09/24 08:14:52;;;;;;;67.17;62.63;;;;;;;;;;5029000;28;20026;-60
2023/09/24 08:17:18;;;;;;;87.43;81.87;;;;;;;;;;5013003;28;20017;-60
2023/09/24 08:19:43;;;;;;;21.47;19.97;;;;;;;;;;5023409;28;20444;-60
2023/09/24 08:22:08;;;;;;;18.05;16.75;;;;;;;;;;5032063;28;20025;-60
2023/09/24 08:24:33;;;;;;;21.23;19.83;;;;;;;;;;5031651;28;20580;-59
2023/09/24 08:26:58;;;;;;;19.00;17.60;;;;;;;;;;5022907;28;20060;-60
2023/09/24 08:29:23;;;;;;;31.73;29.63;;;;;;;;;;5011322;28;20050;-60
2023/09/24 08:31:49;;;;;;;41.63;39.10;;;;;;;;;;5018686;28;20018;-59
2023/09/24 08:34:15;;;;;;;16.53;15.30;;;;;;;;;;5025922;28;20025;-60
2023/09/24 08:36:40;;;;;;;49.50;46.53;;;;;;;;;;5019462;28;20065;-62
2023/09/24 08:39:06;;;;;;;35.60;33.30;;;;;;;;;;5018035;28;20056;-59
2023/09/24 08:41:31;;;;;;;111.87;104.37;;;;;;;;;;5008823;28;20091;-59
2023/09/24 08:44:00;;;;;;;93.53;87.47;;;;;;;;;;5009968;28;20049;-60
2023/09/24 08:46:26;;;;;;;25.75;24.08;;;;;;;;;;5019607;28;20079;-60
2023/09/24 08:48:52;;;;;;;92.07;86.38;;;;;;;;;;5030409;28;20085;-60
2023/09/24 08:51:17;;;;;;;52.03;48.45;;;;;;;;;;5031223;28;20101;-60
2023/09/24 08:53:43;;;;;;;71.35;67.22;;;;;;;;;;5031530;28;20048;-61
2023/09/24 08:56:08;;;;;;;26.70;24.88;;;;;;;;;;5026002;28;20022;-61
2023/09/24 08:58:34;;;;;;;63.80;60.00;;;;;;;;;;5022586;28;20389;-60
2023/09/24 09:01:02;;;;;;;60.60;56.78;;;;;;;;;;5030764;28;20083;-59
2023/09/24 09:03:28;;;;;;;52.58;49.38;;;;;;;;;;5031308;28;20388;-60
2023/09/24 09:05:53;;;;;;;27.35;25.73;;;;;;;;;;5030791;28;20018;-59
2023/09/24 09:08:18;;;;;;;74.80;69.90;;;;;;;;;;5031060;28;20432;-58
2023/09/24 09:10:43;;;;;;;58.33;54.77;;;;;;;;;;5022994;28;20022;-60
2023/09/24 09:13:10;;;;;;;71.80;67.30;;;;;;;;;;5023954;28;20022;-60
2023/09/24 09:15:37;;;;;;;71.97;67.00;;;;;;;;;;5014701;28;20493;-60
2023/09/24 09:18:02;;;;;;;94.72;88.68;;;;;;;;;;5022411;28;20017;-59
2023/09/24 09:20:40;;;;;;;115.53;107.60;;;;;;;;;;5030493;28;20026;-60
2023/09/24 09:23:10;;;;;;;39.08;36.63;;;;;;;;;;5027822;28;20041;-60
2023/09/24 09:25:43;;;;;;;67.60;63.55;;;;;;;;;;5027041;28;20059;-61
2023/09/24 09:28:17;;;;;;;81.82;76.50;;;;;;;;;;5011270;28;20034;-59
2023/09/24 09:30:56;;;;;;;55.17;51.50;;;;;;;;;;5010641;28;20018;-58
2023/09/24 09:33:25;;;;;;;35.65;33.45;;;;;;;;;;5011171;28;20481;-60
2023/09/24 09:35:51;;;;;;;94.53;88.82;;;;;;;;;;5018251;28;20025;-58
2023/09/24 09:38:17;;;;;;;67.22;62.92;;;;;;;;;;5025473;28;20536;-59
2023/09/24 09:40:42;;;;;;;102.28;95.47;;;;;;;;;;5027265;28;20085;-61
2023/09/24 09:43:08;;;;;;;58.23;54.60;;;;;;;;;;5022271;28;20024;-59
2023/09/24 09:45:33;;;;;;;83.45;77.85;;;;;;;;;;5030699;28;20026;-59
2023/09/24 09:48:01;;;;;;;85.27;79.53;;;;;;;;;;5026006;28;20018;-60
2023/09/24 09:50:28;;;;;;;81.25;75.68;;;;;;;;;;5018333;28;20448;-59
2023/09/24 09:52:54;;;;;;;50.38;47.22;;;;;;;;;;5029966;28;20040;-59
2023/09/24 09:55:19;;;;;;;54.80;51.35;;;;;;;;;;5020929;28;20025;-58
2023/09/24 09:57:45;;;;;;;83.03;76.95;;;;;;;;;;4995044;28;20125;-60
2023/09/24 10:00:10;;;;;;;60.60;56.97;;;;;;;;;;4990712;28;20019;-60
2023/09/24 10:02:36;;;;;;;58.80;55.17;;;;;;;;;;4998462;28;20029;-60
2023/09/24 10:05:02;;;;;;;80.40;75.53;;;;;;;;;;5012614;28;20018;-59
2023/09/24 10:07:27;;;;;;;50.95;47.75;;;;;;;;;;5014727;28;20085;-60
2023/09/24 10:09:52;;;;;;;150.97;140.93;;;;;;;;;;5009838;28;21816;-59
2023/09/24 10:12:32;;;;;;;85.53;79.37;;;;;;;;;;5019214;28;20026;-58
2023/09/24 10:14:57;;;;;;;58.38;54.60;;;;;;;;;;4996247;28;20030;-60
2023/09/24 10:17:23;;;;;;;78.20;73.17;;;;;;;;;;5017279;28;20403;-60
2023/09/24 10:19:48;;;;;;;158.10;145.75;;;;;;;;;;5021695;28;20447;-60
2023/09/24 10:22:25;;;;;;;81.38;75.80;;;;;;;;;;5017627;28;20037;-60
2023/09/24 10:24:50;;;;;;;69.57;65.13;;;;;;;;;;5012198;28;20037;-59
2023/09/24 10:27:19;;;;;;;42.57;40.00;;;;;;;;;;5012024;28;20478;-58
2023/09/24 10:29:44;;;;;;;96.50;90.30;;;;;;;;;;5007975;28;21011;-59
2023/09/24 10:32:21;;;;;;;105.67;98.53;;;;;;;;;;5013704;28;20028;-59
2023/09/24 10:34:55;;;;;;;163.70;152.52;;;;;;;;;;5010434;28;20030;-60
2023/09/24 10:37:21;;;;;;;82.85;77.35;;;;;;;;;;5010900;28;20022;-59
2023/09/24 10:40:05;;;;;;;100.88;94.47;;;;;;;;;;5007843;28;20034;-59
2023/09/24 10:42:34;;;;;;;67.05;62.55;;;;;;;;;;5011055;28;20044;-58
2023/09/24 10:45:19;;;;;;;107.65;100.72;;;;;;;;;;5007198;28;20044;-59
2023/09/24 10:47:45;;;;;;;79.50;74.70;;;;;;;;;;5008175;28;20494;-58
2023/09/24 10:50:28;;;;;;;78.53;73.70;;;;;;;;;;5013674;28;20021;-59
2023/09/24 10:52:55;;;;;;;122.03;111.97;;;;;;;;;;5012641;28;20037;-59
2023/09/24 10:55:27;;;;;;;84.30;79.05;;;;;;;;;;5012380;28;20009;-60
2023/09/24 10:57:55;;;;;;;99.03;92.57;;;;;;;;;;5008781;28;20555;-58
2023/09/24 11:00:21;;;;;;;72.50;67.57;;;;;;;;;;5004440;28;20088;-59
2023/09/24 11:02:57;;;;;;;116.65;109.32;;;;;;;;;;5005802;28;20030;-60
2023/09/24 11:05:22;;;;;;;96.38;90.47;;;;;;;;;;5008112;28;20100;-61
2023/09/24 11:07:47;;;;;;;94.57;88.80;;;;;;;;;;5008250;28;20070;-59
2023/09/24 11:10:23;;;;;;;108.77;101.80;;;;;;;;;;5009273;28;20058;-58
2023/09/24 11:12:51;;;;;;;106.22;98.85;;;;;;;;;;5011088;28;20025;-61
2023/09/24 11:15:17;;;;;;;138.30;128.68;;;;;;;;;;5005101;28;20046;-59
2023/09/24 11:17:44;;;;;;;119.30;111.55;;;;;;;;;;5008778;28;20034;-58
2023/09/24 11:20:09;;;;;;;;;;;;;;;;;;5010842;28;20497;-60
2023/09/24 11:22:34;;;;;;;77.07;72.13;;;;;;;;;;5012433;28;20369;-59
2023/09/24 11:25:10;;;;;;;107.20;99.78;;;;;;;;;;5009717;28;20028;-61
2023/09/24 11:27:36;;;;;;;141.77;132.80;;;;;;;;;;5007449;28;20137;-61
2023/09/24 11:30:02;;;;;;;132.00;123.03;;;;;;;;;;5012213;28;20026;-60
2023/09/24 11:32:28;;;;;;;76.93;71.80;;;;;;;;;;5012507;28;20081;-60
2023/09/24 11:35:06;;;;;;;187.35;174.55;;;;;;;;;;5007450;28;20156;-60
2023/09/24 11:37:51;;;;;;;70.35;66.28;;;;;;;;;;5007592;28;20030;-61
2023/09/24 11:40:25;;;;;;;92.20;86.57;;;;;;;;;;5006610;28;20025;-60
2023/09/24 11:42:57;;;;;;;294.80;270.00;;;;;;;;;;5008818;28;20030;-61
2023/09/24 11:45:42;;;;;;;189.70;175.27;;;;;;;;;;5009082;28;20382;-61
2023/09/24 11:48:08;;;;;;;96.50;90.45;;;;;;;;;;5009343;28;20014;-60
2023/09/24 11:50:35;;;;;;;222.43;206.73;;;;;;;;;;5007400;28;20030;-60
2023/09/24 11:53:01;;;;;;;101.07;94.88;;;;;;;;;;5006856;28;20061;-59
2023/09/24 11:55:26;;;;;;;124.93;115.65;;;;;;;;;;5008632;28;20041;-60
2023/09/24 11:57:52;;;;;;;153.93;143.53;;;;;;;;;;5008236;28;20030;-58
2023/09/24 12:00:18;;;;;;;153.52;143.88;;;;;;;;;;5005230;28;20483;-60
2023/09/24 12:02:43;;;;;;;169.25;157.48;;;;;;;;;;5008703;28;20084;-60
2023/09/24 12:05:08;;;;;;;123.13;115.17;;;;;;;;;;5008588;28;20022;-60
2023/09/24 12:07:33;;;;;;;87.50;81.72;;;;;;;;;;5008623;28;20481;-59
2023/09/24 12:09:59;;;;;;;150.48;140.40;;;;;;;;;;5007558;28;20037;-61
2023/09/24 12:12:24;;;;;;;180.63;166.38;;;;;;;;;;5007975;28;20065;-61
2023/09/24 12:14:50;;;;;;;245.77;227.80;;;;;;;;;;5005569;28;20109;-60
2023/09/24 12:17:15;;;;;;;131.07;122.50;;;;;;;;;;5014473;28;20037;-60
2023/09/24 12:19:40;;;;;;;214.47;197.73;;;;;;;;;;5010713;28;20409;-60
2023/09/24 12:22:05;;;;;;;143.57;134.80;;;;;;;;;;5004888;28;20030;-61
2023/09/24 12:24:31;;;;;;;143.98;134.27;;;;;;;;;;5008247;28;20489;-59
2023/09/24 12:26:56;;;;;;;222.23;207.03;;;;;;;;;;5007062;28;20018;-61
2023/09/24 12:29:21;;;;;;;191.88;179.43;;;;;;;;;;5002786;28;20030;-60
2023/09/24 12:31:46;;;;;;;245.55;227.13;;;;;;;;;;5014039;28;20528;-60
2023/09/24 12:34:12;;;;;;;150.60;140.33;;;;;;;;;;5008082;28;20397;-60
2023/09/24 12:36:37;;;;;;;181.10;169.10;;;;;;;;;;5008472;28;20075;-59
2023/09/24 12:39:02;;;;;;;192.37;178.50;;;;;;;;;;5006386;28;20378;-60
2023/09/24 12:41:27;;;;;;;231.68;214.10;;;;;;;;;;5015686;28;20072;-60
2023/09/24 12:43:53;;;;;;;201.70;187.00;;;;;;;;;;5007100;28;20045;-58
2023/09/24 12:46:18;;;;;;;238.77;218.85;;;;;;;;;;5006333;28;20030;-58
2023/09/24 12:48:43;;;;;;;274.23;251.80;;;;;;;;;;5000239;28;20517;-59
2023/09/24 12:51:09;;;;;;;222.10;205.73;;;;;;;;;;5001288;28;20116;-59
2023/09/24 12:53:34;;;;;;;235.33;216.47;;;;;;;;;;5004902;28;20053;-58
2023/09/24 12:55:59;;;;;;;302.87;274.97;;;;;;;;;;5006027;28;20061;-60
2023/09/24 12:58:25;;;;;;;225.52;209.90;;;;;;;;;;5005699;28;20013;-59
2023/09/24 13:00:50;;;;;;;162.82;151.07;;;;;;;;;;5007447;28;20014;-60
2023/09/24 13:03:16;;;;;;;177.30;165.97;;;;;;;;;;5008344;28;20716;-62
2023/09/24 13:05:41;;;;;;;154.43;143.85;;;;;;;;;;5008015;28;20547;-59
2023/09/24 13:08:07;;;;;;;134.23;125.55;;;;;;;;;;5009246;28;20026;-61
2023/09/24 13:10:32;;;;;;;267.07;247.50;;;;;;;;;;5014958;28;20492;-58
2023/09/24 13:12:58;;;;;;;140.10;130.23;;;;;;;;;;5018652;28;20474;-60
2023/09/24 13:15:23;;;;;;;208.95;193.63;;;;;;;;;;5026167;28;20030;-60
2023/09/24 13:17:49;;;;;;;242.23;223.63;;;;;;;;;;5017909;28;20080;-59
2023/09/24 13:20:14;;;;;;;225.93;209.57;;;;;;;;;;5005181;28;20025;-59
2023/09/24 13:22:39;;;;;;;249.23;232.55;;;;;;;;;;5010834;28;20060;-59
2023/09/24 13:25:05;;;;;;;300.03;278.33;;;;;;;;;;5010344;28;20030;-59
2023/09/24 13:27:30;;;;;;;216.57;200.63;;;;;;;;;;5009991;28;20030;-59
2023/09/24 13:29:55;;;;;;;287.80;263.33;;;;;;;;;;5002212;28;20088;-59
2023/09/24 13:32:21;;;;;;;179.77;166.53;;;;;;;;;;5012394;28;20024;-59
2023/09/24 13:34:46;;;;;;;149.52;139.85;;;;;;;;;;5008900;28;20022;-59
2023/09/24 13:37:11;;;;;;;231.77;216.38;;;;;;;;;;4999332;28;20441;-58
2023/09/24 13:39:36;;;;;;;229.60;212.73;;;;;;;;;;5002268;28;20014;-60
2023/09/24 13:42:02;;;;;;;203.33;188.63;;;;;;;;;;5009633;28;20042;-60
2023/09/24 13:44:27;;;;;;;251.00;234.07;;;;;;;;;;5008292;28;20026;-59
2023/09/24 13:46:52;;;;;;;222.47;207.17;;;;;;;;;;5000555;28;20033;-59
2023/09/24 13:49:18;;;;;;;199.15;185.82;;;;;;;;;;4997991;28;20026;-57
2023/09/24 13:51:43;;;;;;;178.67;166.27;;;;;;;;;;5003761;28;20465;-58
2023/09/24 13:54:08;;;;;;;128.43;120.43;;;;;;;;;;5004702;28;20093;-58
2023/09/24 13:56:34;;;;;;;136.13;127.65;;;;;;;;;;5003894;28;20398;-59
2023/09/24 13:58:59;;;;;;;114.50;107.97;;;;;;;;;;5010083;28;20562;-58
2023/09/24 14:01:24;;;;;;;256.90;239.70;;;;;;;;;;5013005;28;20461;-59
2023/09/24 14:03:52;;;;;;;170.43;158.70;;;;;;;;;;5012839;28;20053;-59
2023/09/24 14:06:17;;;;;;;149.68;139.00;;;;;;;;;;5008324;28;20093;-59
2023/09/24 14:14:10;;;;;;;142.80;134.00;;;;;;;;;;5008963;28;20045;-57